Time;durP1;ratioP1;P1;durP2;ratioP2;P2;SDS_P1;SDS_P2;PMS_P1;PMS_P2;Temp;Humidity;BMP_temperature;BMP_pressure;BME280_temperature;BME280_humidity;BME280_pressure;Samples;Min_cycle;Max_cycle;Signal;HPM_P1;HPM_P2
2022/05/12 00:01:10;;;;;;;2.00;0.70;;;15.20;99.90;;;;;;5026164;28;20029;-73
2022/05/12 00:03:35;;;;;;;1.50;0.85;;;15.10;99.90;;;;;;5024723;28;20068;-71
2022/05/12 00:06:02;;;;;;;1.88;0.73;;;15.10;99.90;;;;;;5025946;28;20030;-76
2022/05/12 00:08:28;;;;;;;0.77;0.63;;;15.10;99.90;;;;;;5026201;28;20026;-72
2022/05/12 00:10:54;;;;;;;3.38;0.88;;;15.20;99.90;;;;;;5025362;28;20030;-70
2022/05/12 00:13:20;;;;;;;5.20;1.10;;;15.10;99.90;;;;;;5024656;28;20065;-73
2022/05/12 00:15:48;;;;;;;0.90;0.63;;;15.10;99.90;;;;;;5007356;28;20030;-72
2022/05/12 00:18:14;;;;;;;4.10;1.00;;;15.10;99.90;;;;;;5005057;28;20037;-72
2022/05/12 00:20:41;;;;;;;0.77;0.60;;;15.00;99.90;;;;;;5006191;28;20035;-69
2022/05/12 00:23:08;;;;;;;5.07;0.93;;;15.10;99.90;;;;;;5005282;28;20033;-70
2022/05/12 00:25:34;;;;;;;1.55;0.77;;;15.10;99.90;;;;;;5005970;28;20026;-74
2022/05/12 00:27:59;;;;;;;2.08;1.08;;;15.00;99.90;;;;;;5025358;28;20092;-71
2022/05/12 00:30:25;;;;;;;2.05;1.15;;;15.00;99.90;;;;;;5024787;28;20109;-69
2022/05/12 00:32:50;;;;;;;2.38;1.48;;;14.90;99.90;;;;;;5024137;28;20057;-67
2022/05/12 00:35:18;;;;;;;3.53;1.17;;;14.90;99.90;;;;;;5017633;28;20033;-67
2022/05/12 00:37:49;;;;;;;2.42;1.27;;;14.80;99.90;;;;;;5005677;28;20038;-71
2022/05/12 00:40:16;;;;;;;2.95;1.42;;;14.80;99.90;;;;;;5005052;28;20130;-70
2022/05/12 00:43:04;;;;;;;2.08;1.20;;;14.90;99.90;;;;;;5004913;28;20031;-71
2022/05/12 00:45:35;;;;;;;1.88;1.10;;;14.80;99.90;;;;;;5005275;28;20072;-73
2022/05/12 00:48:02;;;;;;;1.40;0.95;;;14.80;99.90;;;;;;5005395;28;20750;-68
2022/05/12 00:50:36;;;;;;;7.15;1.35;;;14.70;99.90;;;;;;5022927;28;20026;-70
2022/05/12 00:53:05;;;;;;;1.80;1.10;;;14.70;99.90;;;;;;4991382;28;20118;-70
2022/05/12 00:55:35;;;;;;;3.45;1.10;;;14.70;99.90;;;;;;5009235;28;20057;-70
2022/05/12 00:58:08;;;;;;;1.40;1.00;;;14.60;99.90;;;;;;5025247;28;20022;-71
2022/05/12 01:00:35;;;;;;;4.25;1.00;;;14.60;99.90;;;;;;5024752;28;20060;-74
2022/05/12 01:03:06;;;;;;;3.85;1.30;;;14.50;99.90;;;;;;5024555;28;20038;-71
2022/05/12 01:05:32;;;;;;;2.08;0.90;;;14.50;99.90;;;;;;5008873;28;20046;-71
2022/05/12 01:08:02;;;;;;;1.35;1.15;;;14.30;99.90;;;;;;5005874;28;20061;-73
2022/05/12 01:10:29;;;;;;;6.00;1.42;;;14.40;99.90;;;;;;4999444;28;20034;-74
2022/05/12 01:12:55;;;;;;;5.60;1.20;;;14.40;99.90;;;;;;5024677;28;20037;-72
2022/05/12 01:15:24;;;;;;;5.80;1.48;;;14.30;99.90;;;;;;5024887;28;20056;-70
2022/05/12 01:18:04;;;;;;;2.42;1.52;;;14.30;99.90;;;;;;5023384;28;20030;-73
2022/05/12 01:20:31;;;;;;;2.90;1.33;;;14.20;99.90;;;;;;5024770;28;20026;-70
2022/05/12 01:23:04;;;;;;;6.95;1.48;;;14.10;99.90;;;;;;5024625;28;20030;-69
2022/05/12 01:25:30;;;;;;;2.33;1.50;;;14.10;99.90;;;;;;5005624;28;20085;-72
2022/05/12 01:27:56;;;;;;;5.25;1.55;;;14.00;99.90;;;;;;5005045;28;20041;-67
2022/05/12 01:30:24;;;;;;;6.13;1.70;;;13.90;99.90;;;;;;5005123;28;20035;-71
2022/05/12 01:32:50;;;;;;;2.05;1.35;;;13.70;99.90;;;;;;5004939;28;20046;-72
2022/05/12 01:35:19;;;;;;;3.47;1.50;;;13.80;99.90;;;;;;5004919;28;20109;-68
2022/05/12 01:37:45;;;;;;;4.82;1.67;;;13.70;99.90;;;;;;4987562;28;20373;-66
2022/05/12 01:40:14;;;;;;;4.82;1.20;;;13.40;99.90;;;;;;5005001;28;20061;-72
2022/05/12 01:42:40;;;;;;;3.15;0.90;;;13.30;99.90;;;;;;5004665;28;20030;-70
2022/05/12 01:45:07;;;;;;;4.32;1.50;;;13.00;99.90;;;;;;5005018;28;20032;-71
2022/05/12 01:47:35;;;;;;;3.75;0.70;;;13.10;99.90;;;;;;5024509;28;20957;-72
2022/05/12 01:50:01;;;;;;;4.35;1.13;;;13.00;99.90;;;;;;5024601;28;20022;-72
2022/05/12 01:52:27;;;;;;;0.65;0.60;;;12.80;99.90;;;;;;5004777;28;20073;-71
2022/05/12 01:54:53;;;;;;;3.70;1.42;;;12.60;99.90;;;;;;5024196;28;20565;-71
2022/05/12 01:57:19;;;;;;;3.25;0.95;;;12.60;99.90;;;;;;5024381;28;20026;-70
2022/05/12 01:59:44;;;;;;;4.10;0.63;;;12.50;99.90;;;;;;5022985;28;20059;-69
2022/05/12 02:02:10;;;;;;;3.78;0.63;;;12.50;99.90;;;;;;5020124;28;20033;-72
2022/05/12 02:04:36;;;;;;;1.05;0.75;;;12.30;99.90;;;;;;5015519;28;20034;-69
2022/05/12 02:07:01;;;;;;;1.02;0.80;;;12.30;99.90;;;;;;5024073;28;20081;-71
2022/05/12 02:09:27;;;;;;;0.50;0.45;;;12.20;99.90;;;;;;5024313;28;20025;-71
2022/05/12 02:11:53;;;;;;;1.70;0.88;;;12.20;99.90;;;;;;5027265;28;20123;-71
2022/05/12 02:14:19;;;;;;;5.20;0.80;;;12.10;99.90;;;;;;5027956;28;20121;-72
2022/05/12 02:16:44;;;;;;;2.85;0.60;;;12.00;99.90;;;;;;5027399;28;20026;-68
2022/05/12 02:19:11;;;;;;;3.40;1.00;;;12.00;99.90;;;;;;5027964;28;20049;-68
2022/05/12 02:21:37;;;;;;;2.83;0.73;;;12.00;99.90;;;;;;5027695;28;20112;-69
2022/05/12 02:24:04;;;;;;;1.40;0.77;;;11.90;99.90;;;;;;5027542;28;20026;-70
2022/05/12 02:26:30;;;;;;;1.33;0.75;;;11.90;99.90;;;;;;5027635;28;20053;-74
2022/05/12 02:29:01;;;;;;;4.47;0.50;;;11.80;99.90;;;;;;5027616;28;20022;-70
2022/05/12 02:31:27;;;;;;;0.73;0.55;;;11.80;99.90;;;;;;5027762;28;20508;-72
2022/05/12 02:33:52;;;;;;;0.47;0.30;;;11.70;99.90;;;;;;5027313;28;20026;-69
2022/05/12 02:36:18;;;;;;;0.98;0.57;;;11.60;99.90;;;;;;5027223;28;20029;-72
2022/05/12 02:38:44;;;;;;;3.10;0.68;;;11.70;99.90;;;;;;5027381;28;20454;-70
2022/05/12 02:41:09;;;;;;;1.70;0.80;;;11.60;99.90;;;;;;5027591;28;20072;-72
2022/05/12 02:43:36;;;;;;;0.35;0.35;;;11.50;99.90;;;;;;5026652;28;20042;-71
2022/05/12 02:46:07;;;;;;;2.88;0.60;;;11.60;99.90;;;;;;5027267;28;20029;-69
2022/05/12 02:48:37;;;;;;;0.95;0.50;;;11.60;99.90;;;;;;5027247;28;20038;-69
2022/05/12 02:51:03;;;;;;;2.70;0.75;;;11.50;99.90;;;;;;5027040;28;20097;-70
2022/05/12 02:53:30;;;;;;;0.40;0.20;;;11.50;99.90;;;;;;5027443;28;20026;-72
2022/05/12 02:55:56;;;;;;;2.85;0.60;;;11.50;99.90;;;;;;5027271;28;20030;-71
2022/05/12 02:58:22;;;;;;;3.17;0.85;;;11.40;99.90;;;;;;5026564;28;20033;-69
2022/05/12 03:00:47;;;;;;;2.15;0.60;;;11.40;99.90;;;;;;5026955;28;20037;-69
2022/05/12 03:03:13;;;;;;;3.20;0.77;;;11.40;99.90;;;;;;5026024;28;20101;-74
2022/05/12 03:05:39;;;;;;;0.28;0.28;;;11.40;99.90;;;;;;5026301;28;20037;-73
2022/05/12 03:08:06;;;;;;;0.90;0.50;;;11.30;99.90;;;;;;5026773;28;20078;-68
2022/05/12 03:10:34;;;;;;;0.68;0.50;;;11.30;99.90;;;;;;5026534;28;20076;-69
2022/05/12 03:13:01;;;;;;;6.30;0.55;;;11.30;99.90;;;;;;5026985;28;20088;-71
2022/05/12 03:15:27;;;;;;;6.68;0.93;;;11.30;99.90;;;;;;5027126;28;20042;-68
2022/05/12 03:17:53;;;;;;;1.25;0.77;;;11.30;99.90;;;;;;5026595;28;20030;-69
2022/05/12 03:20:22;;;;;;;1.08;0.68;;;11.30;99.90;;;;;;5026498;28;20082;-72
2022/05/12 03:22:48;;;;;;;1.10;0.38;;;11.30;99.90;;;;;;5025171;28;20038;-71
2022/05/12 03:25:15;;;;;;;1.42;0.63;;;11.30;99.90;;;;;;5008280;28;20026;-70
2022/05/12 03:27:41;;;;;;;0.70;0.50;;;11.20;99.90;;;;;;5026347;28;20426;-69
2022/05/12 03:30:16;;;;;;;6.38;0.65;;;11.20;99.90;;;;;;5026576;28;20038;-73
2022/05/12 03:32:42;;;;;;;5.63;0.80;;;11.20;99.90;;;;;;5025962;28;20084;-69
2022/05/12 03:35:09;;;;;;;2.58;0.90;;;11.20;99.90;;;;;;5026493;28;20030;-70
2022/05/12 03:37:36;;;;;;;3.38;1.05;;;11.20;99.90;;;;;;5026488;28;20037;-70
2022/05/12 03:40:03;;;;;;;0.65;0.52;;;11.20;99.90;;;;;;5008101;28;20048;-69
2022/05/12 03:42:30;;;;;;;19.30;1.25;;;11.20;99.90;;;;;;5026369;28;20032;-70
2022/05/12 03:44:58;;;;;;;2.35;1.33;;;11.20;99.90;;;;;;5025741;28;20080;-69
2022/05/12 03:47:27;;;;;;;3.75;1.17;;;11.20;99.90;;;;;;5025845;28;20018;-69
2022/05/12 03:50:03;;;;;;;2.03;0.77;;;11.20;99.90;;;;;;5026244;28;20045;-68
2022/05/12 03:52:30;;;;;;;1.10;0.50;;;11.20;99.90;;;;;;5025776;28;20057;-69
2022/05/12 03:54:57;;;;;;;2.17;0.80;;;11.10;99.90;;;;;;5025956;28;20038;-69
2022/05/12 03:57:24;;;;;;;2.65;1.17;;;11.20;99.90;;;;;;5023261;28;20034;-68
2022/05/12 03:59:50;;;;;;;3.75;1.13;;;11.20;99.90;;;;;;5012869;28;20022;-70
2022/05/12 04:02:17;;;;;;;3.45;1.35;;;11.20;99.90;;;;;;5004553;28;20104;-72
2022/05/12 04:04:46;;;;;;;4.32;1.50;;;11.20;99.90;;;;;;5004844;28;20033;-72
2022/05/12 04:07:17;;;;;;;2.95;1.42;;;11.10;99.90;;;;;;5005102;28;20098;-68
2022/05/12 04:09:43;;;;;;;2.03;1.40;;;11.10;99.90;;;;;;5006224;28;20031;-75
2022/05/12 04:12:09;;;;;;;2.15;1.45;;;11.10;99.90;;;;;;5005180;28;20041;-70
2022/05/12 04:14:36;;;;;;;2.28;1.45;;;11.10;99.90;;;;;;5011904;28;20077;-69
2022/05/12 04:17:02;;;;;;;8.48;1.80;;;11.10;99.90;;;;;;5020766;28;20025;-72
2022/05/12 04:19:28;;;;;;;5.03;1.38;;;11.10;99.90;;;;;;5025207;28;20022;-71
2022/05/12 04:21:54;;;;;;;2.42;1.05;;;11.10;99.90;;;;;;5023954;28;20038;-70
2022/05/12 04:24:20;;;;;;;1.83;1.05;;;11.00;99.90;;;;;;5024461;28;20042;-69
2022/05/12 04:26:46;;;;;;;6.00;1.60;;;11.00;99.90;;;;;;5024433;28;20087;-69
2022/05/12 04:29:13;;;;;;;2.25;1.40;;;11.00;99.90;;;;;;5023833;28;20042;-70
2022/05/12 04:31:39;;;;;;;2.78;1.52;;;11.10;99.90;;;;;;5017708;28;20042;-71
2022/05/12 04:36:54;;;;;;;2.88;1.48;;;11.10;99.90;;;;;;5018830;28;20040;-70
2022/05/12 04:39:20;;;;;;;1.63;1.20;;;11.20;99.90;;;;;;5016342;28;20022;-70
2022/05/12 04:41:46;;;;;;;1.63;1.05;;;11.30;99.90;;;;;;5018364;28;20026;-73
2022/05/12 04:44:12;;;;;;;1.90;1.05;;;11.30;99.90;;;;;;5010489;28;20022;-70
2022/05/12 04:46:42;;;;;;;4.75;0.98;;;11.40;99.90;;;;;;5013743;28;20053;-72
2022/05/12 04:49:10;;;;;;;2.13;1.13;;;11.40;99.90;;;;;;5005477;28;20390;-69
2022/05/12 04:51:37;;;;;;;1.33;0.80;;;11.50;99.90;;;;;;5008926;28;20041;-69
2022/05/12 04:54:09;;;;;;;3.22;1.27;;;11.50;99.90;;;;;;5018842;28;20045;-70
2022/05/12 04:56:37;;;;;;;3.40;1.02;;;11.60;99.90;;;;;;5018921;28;20033;-69
2022/05/12 04:59:05;;;;;;;11.60;1.38;;;11.60;99.90;;;;;;5024060;28;20025;-70
2022/05/12 05:01:31;;;;;;;3.70;1.33;;;11.60;99.90;;;;;;5024377;28;20069;-69
2022/05/12 05:04:00;;;;;;;5.07;1.70;;;11.50;99.90;;;;;;5024170;28;20050;-72
2022/05/12 05:06:30;;;;;;;2.03;1.40;;;11.50;99.90;;;;;;5024716;28;20018;-73
2022/05/12 05:08:55;;;;;;;2.97;1.42;;;11.50;99.90;;;;;;5024830;28;20069;-70
2022/05/12 05:11:21;;;;;;;2.97;1.17;;;11.50;99.90;;;;;;5025112;28;20534;-70
2022/05/12 05:13:47;;;;;;;4.57;1.23;;;11.50;99.90;;;;;;5006585;28;20026;-69
2022/05/12 05:16:13;;;;;;;6.60;1.42;;;11.50;99.90;;;;;;5024595;28;20033;-70
2022/05/12 05:18:38;;;;;;;2.35;0.95;;;11.50;99.90;;;;;;5024750;28;20089;-70
2022/05/12 05:21:04;;;;;;;2.53;1.00;;;11.50;99.90;;;;;;5024664;28;20068;-69
2022/05/12 05:23:30;;;;;;;1.58;1.02;;;11.60;99.90;;;;;;5017882;28;20603;-69
2022/05/12 05:25:59;;;;;;;2.10;1.27;;;11.60;99.90;;;;;;5005059;28;20022;-69
2022/05/12 05:28:25;;;;;;;3.30;0.98;;;11.70;99.90;;;;;;5022337;28;20355;-69
2022/05/12 05:30:51;;;;;;;2.58;1.13;;;11.70;99.90;;;;;;5024445;28;20504;-69
2022/05/12 05:33:18;;;;;;;2.05;1.20;;;11.70;99.90;;;;;;5014950;28;20417;-68
2022/05/12 05:35:44;;;;;;;5.97;1.25;;;11.70;99.90;;;;;;4988271;28;20031;-68
2022/05/12 05:38:10;;;;;;;1.88;0.90;;;11.80;99.90;;;;;;5023226;28;20398;-70
2022/05/12 05:40:37;;;;;;;0.80;0.55;;;11.80;99.90;;;;;;5024254;28;20113;-70
2022/05/12 05:43:03;;;;;;;5.80;1.52;;;11.90;99.90;;;;;;5024419;28;20096;-70
2022/05/12 05:45:28;;;;;;;8.35;1.05;;;11.90;99.90;;;;;;5008943;28;20054;-70
2022/05/12 05:47:58;;;;;;;5.70;1.45;;;11.90;99.90;;;;;;5008537;28;20034;-67
2022/05/12 05:53:23;;;;;;;2.58;1.30;;;11.90;99.90;;;;;;5008081;28;20037;-70
2022/05/12 05:53:27;;;;;;;2.78;1.33;;;11.90;99.90;;;;;;5008639;28;20033;-75
2022/05/12 05:55:56;;;;;;;2.53;1.10;;;12.00;99.90;;;;;;5008373;28;20034;-70
2022/05/12 05:58:23;;;;;;;2.55;0.65;;;12.00;99.90;;;;;;5009052;28;20038;-70
2022/05/12 06:00:49;;;;;;;2.72;1.30;;;12.10;99.90;;;;;;5016876;28;20030;-68
2022/05/12 06:03:16;;;;;;;2.15;1.05;;;12.00;99.90;;;;;;5021563;28;20050;-71
2022/05/12 06:05:42;;;;;;;3.47;1.08;;;12.00;99.90;;;;;;5016973;28;20501;-68
2022/05/12 06:08:14;;;;;;;5.30;1.02;;;12.00;99.90;;;;;;5022037;28;20033;-70
2022/05/12 06:10:41;;;;;;;4.68;1.20;;;12.10;99.90;;;;;;5007568;28;20038;-67
2022/05/12 06:13:08;;;;;;;3.22;0.85;;;12.10;99.90;;;;;;5018791;28;20464;-69
2022/05/12 06:15:36;;;;;;;1.98;1.05;;;12.20;99.90;;;;;;5018619;28;20418;-69
2022/05/12 06:18:07;;;;;;;6.97;1.58;;;12.20;99.90;;;;;;5026006;28;20026;-70
2022/05/12 06:20:33;;;;;;;4.93;1.60;;;12.30;99.90;;;;;;5027152;28;20037;-69
2022/05/12 06:22:59;;;;;;;4.00;0.98;;;12.30;99.90;;;;;;5017648;28;20045;-70
2022/05/12 06:25:25;;;;;;;3.65;1.73;;;12.40;99.90;;;;;;5007858;28;20030;-70
2022/05/12 06:27:51;;;;;;;4.25;1.17;;;12.40;99.90;;;;;;5007387;28;20041;-69
2022/05/12 06:30:18;;;;;;;4.50;1.00;;;12.50;99.90;;;;;;5007874;28;20050;-69
2022/05/12 06:32:44;;;;;;;1.95;1.00;;;12.60;99.90;;;;;;5013635;28;20030;-72
2022/05/12 06:35:12;;;;;;;1.08;0.90;;;12.70;99.90;;;;;;5017649;28;20034;-70
2022/05/12 06:37:38;;;;;;;2.47;1.00;;;12.80;99.90;;;;;;5011021;28;20081;-68
2022/05/12 06:40:04;;;;;;;6.35;1.50;;;12.80;99.90;;;;;;5007880;28;20387;-73
2022/05/12 06:42:31;;;;;;;2.72;1.05;;;12.90;99.90;;;;;;5026331;28;20084;-68
2022/05/12 06:44:58;;;;;;;3.08;1.20;;;13.00;99.90;;;;;;5019145;28;20037;-68
2022/05/12 06:47:24;;;;;;;2.50;0.95;;;13.00;99.90;;;;;;4996579;28;20019;-69
2022/05/12 06:49:51;;;;;;;5.32;1.15;;;13.10;99.90;;;;;;5009595;28;20085;-72
2022/05/12 06:52:17;;;;;;;2.65;1.13;;;13.10;99.90;;;;;;5024772;28;20026;-68
2022/05/12 06:54:44;;;;;;;7.22;1.05;;;13.10;99.90;;;;;;5025343;28;20080;-73
2022/05/12 06:57:11;;;;;;;5.90;0.75;;;13.10;99.90;;;;;;5019342;28;20080;-70
2022/05/12 06:59:39;;;;;;;2.20;1.23;;;13.10;99.90;;;;;;5025094;28;20057;-73
2022/05/12 08:22:39;;;;;;;2.42;1.05;;;15.30;99.90;;;;;;4240261;28;20114;-76
2022/05/12 08:25:08;;;;;;;5.78;1.38;;;15.40;99.90;;;;;;4983308;28;20034;-72
2022/05/12 08:27:34;;;;;;;1.88;1.23;;;15.40;99.90;;;;;;4983720;28;20652;-75
2022/05/12 08:30:01;;;;;;;5.65;1.52;;;15.60;99.90;;;;;;4981266;28;20027;-72
2022/05/12 08:32:27;;;;;;;3.42;1.48;;;15.60;99.90;;;;;;4983261;28;20061;-71
2022/05/12 08:34:52;;;;;;;4.50;1.20;;;15.70;99.90;;;;;;4964402;28;20037;-74
2022/05/12 08:37:18;;;;;;;4.38;1.50;;;15.70;99.90;;;;;;4982140;28;20036;-74
2022/05/12 08:39:45;;;;;;;2.88;1.20;;;15.90;99.90;;;;;;4982986;28;20038;-71
2022/05/12 08:42:29;;;;;;;8.57;1.77;;;16.10;99.90;;;;;;4964564;28;20380;-71
2022/05/12 08:44:59;;;;;;;2.78;0.85;;;16.10;99.90;;;;;;4981872;28;20050;-74
2022/05/12 08:47:42;;;;;;;5.70;0.90;;;16.30;99.90;;;;;;4983562;28;20770;-71
2022/05/12 08:50:08;;;;;;;2.00;1.00;;;16.40;99.90;;;;;;4982911;28;20031;-70
2022/05/12 08:52:55;;;;;;;1.45;0.77;;;16.50;99.90;;;;;;4963861;28;20038;-71
2022/05/12 08:55:29;;;;;;;1.38;1.00;;;16.60;99.90;;;;;;4982912;28;20034;-72
2022/05/12 08:58:02;;;;;;;1.08;0.93;;;16.50;99.90;;;;;;4979806;28;20038;-71
2022/05/12 09:00:33;;;;;;;2.80;1.27;;;16.60;99.90;;;;;;4963463;28;20098;-71
2022/05/12 09:03:23;;;;;;;1.13;0.70;;;16.50;99.90;;;;;;4981675;28;20039;-70
2022/05/12 09:06:06;;;;;;;7.93;1.17;;;16.60;99.90;;;;;;4982680;28;20041;-71
2022/05/12 09:08:37;;;;;;;3.30;1.20;;;16.80;99.90;;;;;;4982321;28;20027;-69
2022/05/12 09:11:14;;;;;;;1.70;0.80;;;16.90;99.90;;;;;;4982135;28;20090;-74
2022/05/12 09:13:45;;;;;;;2.33;0.70;;;17.00;99.90;;;;;;4964921;28;20027;-70
2022/05/12 09:16:20;;;;;;;2.25;0.88;;;16.80;99.90;;;;;;4982233;28;20053;-69
2022/05/12 09:18:46;;;;;;;4.63;0.70;;;16.70;99.90;;;;;;4979213;28;20467;-74
2022/05/12 09:21:18;;;;;;;1.45;0.90;;;16.60;99.90;;;;;;4984828;28;20035;-71
2022/05/12 09:23:44;;;;;;;2.38;0.80;;;16.70;99.90;;;;;;4985087;28;20730;-72
2022/05/12 09:26:40;;;;;;;1.98;0.70;;;16.80;99.90;;;;;;4985341;28;20030;-74
2022/05/12 09:29:24;;;;;;;2.28;0.73;;;16.80;99.90;;;;;;4986297;28;20033;-73
2022/05/12 09:32:04;;;;;;;1.52;0.47;;;16.80;99.90;;;;;;4985045;28;20042;-72
2022/05/12 09:34:32;;;;;;;0.40;0.32;;;16.70;99.90;;;;;;4985831;28;20042;-71
2022/05/12 09:37:26;;;;;;;1.45;0.70;;;16.70;99.90;;;;;;4986490;28;20085;-68
2022/05/12 09:39:55;;;;;;;3.00;0.80;;;16.90;99.90;;;;;;4985014;28;20033;-72
2022/05/12 09:42:27;;;;;;;0.43;0.43;;;17.10;99.90;;;;;;4985362;28;20035;-74
2022/05/12 09:45:18;;;;;;;1.88;0.85;;;17.30;99.90;;;;;;4987087;28;20086;-69
2022/05/12 09:47:43;;;;;;;0.93;0.40;;;17.50;99.90;;;;;;4985501;28;20027;-76
2022/05/12 09:50:20;;;;;;;3.83;0.85;;;17.60;99.90;;;;;;4969425;28;20099;-72
2022/05/12 09:53:10;;;;;;;0.52;0.50;;;17.50;99.90;;;;;;4985586;28;20390;-73
2022/05/12 09:55:38;;;;;;;5.32;0.93;;;17.60;99.90;;;;;;4985526;28;20486;-70
2022/05/12 09:58:16;;;;;;;3.72;0.95;;;17.70;99.90;;;;;;4983550;28;20054;-69
2022/05/12 10:00:48;;;;;;;1.15;0.60;;;17.90;99.90;;;;;;4983595;28;20039;-69
2022/05/12 10:09:15;;;;;;;4.80;0.30;;;17.90;99.90;;;;;;4984555;28;20130;-69
2022/05/12 10:12:16;;;;;;;0.45;0.40;;;18.10;99.90;;;;;;4985143;28;20077;-69
2022/05/12 10:14:55;;;;;;;0.93;0.50;;;18.40;99.90;;;;;;4985296;28;20043;-73
2022/05/12 10:17:26;;;;;;;0.73;0.32;;;18.60;99.90;;;;;;4985792;28;20034;-71
2022/05/12 10:19:53;;;;;;;1.85;0.73;;;18.70;99.90;;;;;;4986015;28;20039;-72
2022/05/12 10:22:34;;;;;;;0.45;0.45;;;18.70;99.90;;;;;;4984775;28;20058;-70
2022/05/12 10:25:16;;;;;;;4.78;0.65;;;18.30;99.90;;;;;;4963898;28;20086;-75
2022/05/12 10:27:57;;;;;;;1.80;0.43;;;17.90;99.90;;;;;;4979730;28;20054;-69
2022/05/12 10:30:32;;;;;;;0.55;0.40;;;17.80;99.90;;;;;;4980329;28;20031;-75
2022/05/12 10:33:07;;;;;;;2.05;0.40;;;18.00;99.90;;;;;;4976640;28;20027;-73
2022/05/12 10:35:52;;;;;;;5.28;0.93;;;18.20;99.90;;;;;;4977369;28;20038;-72
2022/05/12 10:38:44;;;;;;;3.22;0.60;;;18.50;99.90;;;;;;4978112;28;20478;-71
2022/05/12 10:41:20;;;;;;;1.52;0.50;;;18.80;99.90;;;;;;4966916;28;20038;-70
2022/05/12 10:44:18;;;;;;;0.30;0.30;;;18.70;99.90;;;;;;4985170;28;20122;-71
2022/05/12 10:46:49;;;;;;;4.80;0.77;;;18.90;99.90;;;;;;4985604;28;20035;-72
2022/05/12 10:49:40;;;;;;;0.90;0.40;;;18.80;99.90;;;;;;4985669;28;20090;-72
2022/05/12 10:52:50;;;;;;;2.17;0.40;;;18.80;99.90;;;;;;4984668;28;20031;-72
2022/05/12 10:55:23;;;;;;;1.08;0.38;;;19.00;99.90;;;;;;4966615;28;20045;-73
2022/05/12 10:58:26;;;;;;;3.13;0.30;;;19.20;99.90;;;;;;4983365;28;20039;-71
2022/05/12 11:00:58;;;;;;;2.70;0.60;;;19.40;99.90;;;;;;4984304;28;20483;-72
2022/05/12 11:03:32;;;;;;;0.57;0.55;;;19.50;99.90;;;;;;4982674;28;20035;-69
2022/05/12 11:06:03;;;;;;;1.75;0.60;;;19.40;99.90;;;;;;4985228;28;20027;-71
2022/05/12 11:08:38;;;;;;;3.30;0.50;;;19.60;99.90;;;;;;4984490;28;20030;-69
2022/05/12 11:11:12;;;;;;;1.67;0.50;;;19.70;99.90;;;;;;4967534;28;20043;-70
2022/05/12 11:14:06;;;;;;;4.63;0.85;;;19.70;99.90;;;;;;4984966;28;20022;-70
2022/05/12 11:16:46;;;;;;;1.60;0.60;;;19.90;99.90;;;;;;4984330;28;20181;-67
2022/05/12 11:19:21;;;;;;;3.95;0.68;;;19.90;99.90;;;;;;4984404;28;20037;-70
2022/05/12 11:22:09;;;;;;;1.20;0.55;;;19.80;99.90;;;;;;4984656;28;20026;-69
2022/05/12 11:24:55;;;;;;;0.90;0.47;;;19.40;99.90;;;;;;4984708;28;20049;-71
2022/05/12 11:27:25;;;;;;;2.08;0.60;;;19.20;99.90;;;;;;4984926;28;20033;-72
2022/05/12 11:30:16;;;;;;;1.45;0.47;;;19.30;99.90;;;;;;4984143;28;20023;-71
2022/05/12 11:32:57;;;;;;;0.73;0.40;;;19.60;99.90;;;;;;4984535;28;20062;-71
2022/05/12 11:35:33;;;;;;;1.25;0.60;;;20.00;99.90;;;;;;4985055;28;20029;-72
2022/05/12 11:38:03;;;;;;;1.13;0.50;;;20.20;99.90;;;;;;4984740;28;20089;-73
2022/05/12 11:40:41;;;;;;;0.82;0.55;;;20.00;99.90;;;;;;4984665;28;20058;-68
2022/05/12 11:46:33;;;;;;;1.35;0.50;;;19.70;99.90;;;;;;4983975;28;20074;-70
2022/05/12 11:49:25;;;;;;;0.93;0.43;;;19.60;99.90;;;;;;4984819;28;20023;-70
2022/05/12 11:52:16;;;;;;;4.88;0.60;;;19.50;99.90;;;;;;4947622;28;20454;-70
2022/05/12 11:54:58;;;;;;;1.73;0.50;;;19.30;99.90;;;;;;4966646;28;20038;-71
2022/05/12 11:57:29;;;;;;;2.17;0.70;;;19.40;99.90;;;;;;4966620;28;20041;-72
2022/05/12 11:59:57;;;;;;;5.88;0.80;;;19.50;99.90;;;;;;4984254;28;20439;-76
2022/05/12 12:02:29;;;;;;;2.85;0.95;;;19.80;99.90;;;;;;4984264;28;20125;-75
2022/05/12 12:05:03;;;;;;;1.35;0.40;;;20.30;99.90;;;;;;4984205;28;20027;-70
2022/05/12 12:07:32;;;;;;;7.32;0.95;;;20.60;99.90;;;;;;4984176;28;20086;-74
2022/05/12 12:09:58;;;;;;;1.23;0.50;;;20.90;99.90;;;;;;4983887;28;20038;-72
2022/05/12 12:12:43;;;;;;;3.15;0.75;;;21.10;99.90;;;;;;4984467;28;20280;-72
2022/05/12 12:15:34;;;;;;;1.38;0.50;;;20.90;99.90;;;;;;4983433;28;20036;-72
2022/05/12 12:18:18;;;;;;;5.50;0.70;;;20.70;99.90;;;;;;4946007;28;20062;-70
2022/05/12 12:20:50;;;;;;;2.13;0.50;;;20.60;99.90;;;;;;4983738;28;20130;-71
2022/05/12 12:23:36;;;;;;;1.77;0.70;;;20.80;99.90;;;;;;4983401;28;20049;-70
2022/05/12 12:26:20;;;;;;;2.05;0.60;;;21.20;99.90;;;;;;4983902;28;20514;-69
2022/05/12 12:28:59;;;;;;;0.77;0.32;;;21.50;99.90;;;;;;4981444;28;20482;-73
2022/05/12 12:31:31;;;;;;;1.42;0.50;;;21.80;99.90;;;;;;4983199;28;20117;-71
2022/05/12 12:34:20;;;;;;;1.20;0.55;;;21.90;99.90;;;;;;4982793;28;20037;-73
2022/05/12 12:36:49;;;;;;;6.30;0.68;;;21.70;99.90;;;;;;4983733;28;20035;-72
2022/05/12 12:39:39;;;;;;;0.35;0.25;;;21.80;99.90;;;;;;4966476;28;20061;-73
2022/05/12 12:42:34;;;;;;;0.60;0.40;;;22.00;99.90;;;;;;4982525;28;20035;-70
2022/05/12 12:45:07;;;;;;;0.30;0.30;;;22.10;99.90;;;;;;4962155;28;20066;-70
2022/05/12 12:47:41;;;;;;;0.55;0.20;;;22.10;99.90;;;;;;4980994;28;20117;-72
2022/05/12 12:50:13;;;;;;;;;;;21.90;99.60;;;;;;4981768;28;20038;-71
2022/05/12 12:52:44;;;;;;;1.75;0.50;;;21.70;98.40;;;;;;4981940;28;19906;-71
2022/05/12 12:58:37;;;;;;;1.67;0.55;;;21.70;99.60;;;;;;4982191;28;20130;-70
2022/05/12 13:01:16;;;;;;;3.70;0.68;;;22.10;99.10;;;;;;4978182;28;20042;-70
2022/05/12 13:03:54;;;;;;;1.27;0.77;;;22.30;98.80;;;;;;4977390;28;20039;-68
2022/05/12 13:06:30;;;;;;;2.25;0.40;;;22.10;99.90;;;;;;4979163;28;20041;-69
2022/05/12 13:09:03;;;;;;;0.52;0.40;;;22.00;99.40;;;;;;4977885;28;20031;-68
2022/05/12 13:11:29;;;;;;;3.03;0.80;;;22.20;99.00;;;;;;4981284;28;20033;-68
2022/05/12 13:13:56;;;;;;;0.95;0.70;;;22.40;99.90;;;;;;4981970;28;20510;-70
2022/05/12 13:16:30;;;;;;;1.55;0.47;;;22.60;99.90;;;;;;4980164;28;20540;-69
2022/05/12 13:18:57;;;;;;;2.03;0.53;;;23.00;98.20;;;;;;4982290;28;20019;-71
2022/05/12 13:21:34;;;;;;;1.10;0.50;;;23.30;99.90;;;;;;4982316;28;20122;-72
2022/05/12 13:24:05;;;;;;;1.85;0.55;;;23.40;99.00;;;;;;4981136;28;20047;-73
2022/05/12 13:26:31;;;;;;;1.20;0.60;;;23.30;97.40;;;;;;4982954;28;20043;-69
2022/05/12 13:28:59;;;;;;;1.40;0.82;;;23.20;99.00;;;;;;4983338;28;20034;-74
2022/05/12 13:31:35;;;;;;;6.38;0.77;;;23.50;97.80;;;;;;4982844;28;20169;-69
2022/05/12 13:34:12;;;;;;;2.17;0.95;;;23.40;96.10;;;;;;4982918;28;20026;-73
2022/05/12 13:36:48;;;;;;;0.77;0.47;;;23.50;97.90;;;;;;4982255;28;20027;-67
2022/05/12 13:39:49;;;;;;;0.82;0.50;;;23.80;96.80;;;;;;4965549;28;20404;-71
2022/05/12 13:42:40;;;;;;;0.90;0.50;;;24.10;94.40;;;;;;4982520;28;20030;-73
2022/05/12 13:45:31;;;;;;;2.05;0.60;;;24.30;93.80;;;;;;4982107;28;20054;-73
2022/05/12 13:48:01;;;;;;;2.10;0.68;;;23.70;94.60;;;;;;4981069;28;20094;-73
2022/05/12 13:50:35;;;;;;;4.63;0.75;;;22.80;97.30;;;;;;4982173;28;20030;-73
2022/05/12 13:53:00;;;;;;;8.30;1.10;;;22.00;98.70;;;;;;4965276;28;20113;-71
2022/05/12 13:55:34;;;;;;;3.88;1.05;;;21.50;99.20;;;;;;4983235;28;20050;-73
2022/05/12 13:58:03;;;;;;;0.55;0.40;;;21.10;99.50;;;;;;4982864;28;20031;-73
2022/05/12 14:00:32;;;;;;;0.82;0.63;;;20.70;99.90;;;;;;4965170;28;20133;-71
2022/05/12 14:03:27;;;;;;;1.58;0.60;;;20.40;99.90;;;;;;4965671;28;20043;-71
2022/05/12 14:06:09;;;;;;;6.85;1.15;;;20.50;99.90;;;;;;4973956;28;20042;-72
2022/05/12 14:08:35;;;;;;;6.03;1.05;;;21.30;99.70;;;;;;4979724;28;20031;-71
2022/05/12 14:11:01;;;;;;;7.68;1.00;;;21.50;98.50;;;;;;4980688;28;20038;-69
2022/05/12 14:19:20;;;;;;;3.13;0.85;;;21.60;99.50;;;;;;4977335;28;20078;-69
2022/05/12 14:21:59;;;;;;;0.95;0.63;;;22.00;99.10;;;;;;4979121;28;20082;-70
2022/05/12 14:24:31;;;;;;;2.00;0.80;;;22.20;98.90;;;;;;4982750;28;20054;-70
2022/05/12 14:26:58;;;;;;;0.52;0.47;;;22.30;98.80;;;;;;4984521;28;20447;-71
2022/05/12 14:29:26;;;;;;;1.95;0.75;;;22.20;98.80;;;;;;4986048;28;20047;-70
2022/05/12 14:31:54;;;;;;;1.20;0.70;;;22.00;98.10;;;;;;4985000;28;20093;-70
2022/05/12 14:34:20;;;;;;;1.42;0.82;;;21.90;96.60;;;;;;4984924;28;20059;-69
2022/05/12 14:36:50;;;;;;;1.13;0.60;;;21.80;97.80;;;;;;4985609;28;20014;-70
2022/05/12 14:39:16;;;;;;;1.02;0.50;;;21.50;96.30;;;;;;4968076;28;20053;-69
2022/05/12 14:41:43;;;;;;;2.75;0.90;;;21.10;97.70;;;;;;4983041;28;20031;-70
2022/05/12 14:44:25;;;;;;;3.10;0.60;;;21.00;98.50;;;;;;4984602;28;20097;-70
2022/05/12 14:47:03;;;;;;;2.72;1.05;;;21.00;98.20;;;;;;4980620;28;20122;-73
2022/05/12 14:49:40;;;;;;;9.68;1.02;;;21.20;99.50;;;;;;4966747;28;20027;-72
2022/05/12 14:52:10;;;;;;;3.63;0.60;;;21.70;98.20;;;;;;4982278;28;20031;-70